sensor_id;sensor_type;location;lat;lon;timestamp;temperature;humidity
20162;DHT22;51382;53.180;15.414;2023-03-13T00:06:37;2.30;99.90
20162;DHT22;51382;53.180;15.414;2023-03-13T00:21:49;2.70;99.90
20162;DHT22;51382;53.180;15.414;2023-03-13T00:37:00;6.20;99.90
20162;DHT22;51382;53.180;15.414;2023-03-13T00:52:12;2.80;99.90
20162;DHT22;51382;53.180;15.414;2023-03-13T01:07:18;3.40;99.90
20162;DHT22;51382;53.180;15.414;2023-03-13T01:22:29;3.50;99.90
20162;DHT22;51382;53.180;15.414;2023-03-13T01:37:40;3.90;99.90
20162;DHT22;51382;53.180;15.414;2023-03-13T01:52:52;4.20;99.90
20162;DHT22;51382;53.180;15.414;2023-03-13T02:08:06;4.40;99.90
20162;DHT22;51382;53.180;15.414;2023-03-13T02:23:21;4.40;99.90
20162;DHT22;51382;53.180;15.414;2023-03-13T02:38:34;4.50;99.90
20162;DHT22;51382;53.180;15.414;2023-03-13T02:53:48;4.70;99.90
20162;DHT22;51382;53.180;15.414;2023-03-13T03:09:02;4.90;99.90
20162;DHT22;51382;53.180;15.414;2023-03-13T03:24:13;4.90;99.90
20162;DHT22;51382;53.180;15.414;2023-03-13T03:39:25;5.20;99.90
20162;DHT22;51382;53.180;15.414;2023-03-13T03:54:36;5.30;99.90
20162;DHT22;51382;53.180;15.414;2023-03-13T04:09:42;5.30;99.90
20162;DHT22;51382;53.180;15.414;2023-03-13T04:25:02;5.20;99.90
20162;DHT22;51382;53.180;15.414;2023-03-13T04:40:15;5.50;99.90
20162;DHT22;51382;53.180;15.414;2023-03-13T04:55:46;5.50;99.90
20162;DHT22;51382;53.180;15.414;2023-03-13T05:11:22;5.40;99.90
20162;DHT22;51382;53.180;15.414;2023-03-13T05:26:37;5.50;99.90
20162;DHT22;51382;53.180;15.414;2023-03-13T05:41:46;5.60;99.90
20162;DHT22;51382;53.180;15.414;2023-03-13T05:57:09;5.70;99.90
20162;DHT22;51382;53.180;15.414;2023-03-13T06:12:43;5.80;99.90
20162;DHT22;51382;53.180;15.414;2023-03-13T06:28:03;5.90;99.90
20162;DHT22;51382;53.180;15.414;2023-03-13T06:43:15;6.00;99.90
20162;DHT22;51382;53.180;15.414;2023-03-13T06:58:26;6.10;99.90
20162;DHT22;51382;53.180;15.414;2023-03-13T07:13:37;6.40;99.90
20162;DHT22;51382;53.180;15.414;2023-03-13T07:28:49;6.50;99.90
20162;DHT22;51382;53.180;15.414;2023-03-13T07:44:00;6.60;99.90
20162;DHT22;51382;53.180;15.414;2023-03-13T07:59:12;6.80;99.90
20162;DHT22;51382;53.180;15.414;2023-03-13T08:14:18;7.00;99.90
20162;DHT22;51382;53.180;15.414;2023-03-13T08:29:29;7.30;99.90
20162;DHT22;51382;53.180;15.414;2023-03-13T08:44:42;7.60;99.90
20162;DHT22;51382;53.180;15.414;2023-03-13T08:59:53;7.70;99.90
20162;DHT22;51382;53.180;15.414;2023-03-13T09:15:06;8.00;99.90
20162;DHT22;51382;53.180;15.414;2023-03-13T09:30:19;8.30;99.90
20162;DHT22;51382;53.180;15.414;2023-03-13T09:45:31;8.10;99.90
20162;DHT22;51382;53.180;15.414;2023-03-13T10:00:45;8.40;99.90
20162;DHT22;51382;53.180;15.414;2023-03-13T10:16:01;8.60;99.90
20162;DHT22;51382;53.180;15.414;2023-03-13T10:31:19;8.60;99.90
20162;DHT22;51382;53.180;15.414;2023-03-13T10:46:31;8.70;99.90
20162;DHT22;51382;53.180;15.414;2023-03-13T11:01:44;8.90;99.90
20162;DHT22;51382;53.180;15.414;2023-03-13T11:16:57;9.40;99.90
20162;DHT22;51382;53.180;15.414;2023-03-13T11:32:16;9.50;99.90
20162;DHT22;51382;53.180;15.414;2023-03-13T11:47:30;9.50;99.90
20162;DHT22;51382;53.180;15.414;2023-03-13T12:02:52;9.60;99.90
20162;DHT22;51382;53.180;15.414;2023-03-13T12:18:08;9.90;99.90
20162;DHT22;51382;53.180;15.414;2023-03-13T12:33:21;9.90;99.90
20162;DHT22;51382;53.180;15.414;2023-03-13T12:48:41;10.10;99.90
20162;DHT22;51382;53.180;15.414;2023-03-13T13:04:04;10.20;99.90
20162;DHT22;51382;53.180;15.414;2023-03-13T13:34:55;11.50;99.90
20162;DHT22;51382;53.180;15.414;2023-03-13T13:50:14;11.50;99.90
20162;DHT22;51382;53.180;15.414;2023-03-13T14:05:24;12.20;99.90
20162;DHT22;51382;53.180;15.414;2023-03-13T14:20:37;12.30;99.90
20162;DHT22;51382;53.180;15.414;2023-03-13T14:35:49;12.80;99.90
20162;DHT22;51382;53.180;15.414;2023-03-13T14:51:02;12.90;99.90
20162;DHT22;51382;53.180;15.414;2023-03-13T15:06:20;13.30;99.90
20162;DHT22;51382;53.180;15.414;2023-03-13T15:21:29;13.20;99.90
20162;DHT22;51382;53.180;15.414;2023-03-13T15:36:42;12.90;99.90
20162;DHT22;51382;53.180;15.414;2023-03-13T15:51:53;12.70;99.90
20162;DHT22;51382;53.180;15.414;2023-03-13T16:07:08;12.50;99.90
20162;DHT22;51382;53.180;15.414;2023-03-13T16:22:20;12.30;99.90
20162;DHT22;51382;53.180;15.414;2023-03-13T16:37:31;12.20;99.90
20162;DHT22;51382;53.180;15.414;2023-03-13T16:52:43;11.90;99.90
20162;DHT22;51382;53.180;15.414;2023-03-13T17:07:54;11.70;99.90
20162;DHT22;51382;53.180;15.414;2023-03-13T17:23:06;11.80;99.90
20162;DHT22;51382;53.180;15.414;2023-03-13T17:38:18;11.90;99.90
20162;DHT22;51382;53.180;15.414;2023-03-13T17:53:30;11.80;99.90
20162;DHT22;51382;53.180;15.414;2023-03-13T18:08:41;11.90;99.90
20162;DHT22;51382;53.180;15.414;2023-03-13T18:23:52;11.50;99.90
20162;DHT22;51382;53.180;15.414;2023-03-13T18:39:05;11.60;99.90
20162;DHT22;51382;53.180;15.414;2023-03-13T18:54:21;11.50;99.90
20162;DHT22;51382;53.180;15.414;2023-03-13T19:09:32;11.50;99.90
20162;DHT22;51382;53.180;15.414;2023-03-13T19:24:44;11.50;99.90
20162;DHT22;51382;53.180;15.414;2023-03-13T19:39:55;11.40;99.90
20162;DHT22;51382;53.180;15.414;2023-03-13T19:55:07;11.60;99.90
20162;DHT22;51382;53.180;15.414;2023-03-13T20:10:19;11.50;99.90
20162;DHT22;51382;53.180;15.414;2023-03-13T20:25:32;12.00;99.90
20162;DHT22;51382;53.180;15.414;2023-03-13T20:40:47;11.90;99.90
20162;DHT22;51382;53.180;15.414;2023-03-13T20:56:01;11.70;99.90
20162;DHT22;51382;53.180;15.414;2023-03-13T21:11:14;11.70;99.90
20162;DHT22;51382;53.180;15.414;2023-03-13T21:26:27;12.00;99.90
20162;DHT22;51382;53.180;15.414;2023-03-13T21:41:39;12.30;99.90
20162;DHT22;51382;53.180;15.414;2023-03-13T21:56:50;11.70;99.90
20162;DHT22;51382;53.180;15.414;2023-03-13T22:12:02;11.50;99.90
20162;DHT22;51382;53.180;15.414;2023-03-13T22:27:13;11.40;99.90
20162;DHT22;51382;53.180;15.414;2023-03-13T22:42:26;11.40;99.90
20162;DHT22;51382;53.180;15.414;2023-03-13T22:57:37;11.30;99.90
20162;DHT22;51382;53.180;15.414;2023-03-13T23:12:48;11.10;99.90
20162;DHT22;51382;53.180;15.414;2023-03-13T23:28:00;10.80;99.90
20162;DHT22;51382;53.180;15.414;2023-03-13T23:43:11;10.70;99.90
20162;DHT22;51382;53.180;15.414;2023-03-13T23:58:22;11.10;99.90
